sensor_id;sensor_type;location;lat;lon;timestamp;pressure;altitude;pressure_sealevel;temperature;humidity
79123;BME280;68526;44.600;26.032;2023-09-19T00:00:08;100974.06;;;15.69;67.08
79123;BME280;68526;44.600;26.032;2023-09-19T00:00:24;100978.78;;;15.68;66.99
79123;BME280;68526;44.600;26.032;2023-09-19T00:00:42;100970.50;;;15.68;66.83
79123;BME280;68526;44.600;26.032;2023-09-19T00:00:59;100973.63;;;15.67;66.95
79123;BME280;68526;44.600;26.032;2023-09-19T00:01:15;100974.88;;;15.69;66.91
79123;BME280;68526;44.600;26.032;2023-09-19T00:01:31;100970.84;;;15.67;66.97
79123;BME280;68526;44.600;26.032;2023-09-19T00:01:47;100975.56;;;15.66;67.12
79123;BME280;68526;44.600;26.032;2023-09-19T00:02:03;100975.56;;;15.66;67.13
79123;BME280;68526;44.600;26.032;2023-09-19T00:02:20;100963.22;;;15.64;66.96
79123;BME280;68526;44.600;26.032;2023-09-19T00:02:35;100969.25;;;15.66;66.94
79123;BME280;68526;44.600;26.032;2023-09-19T00:02:52;100973.97;;;15.65;66.81
79123;BME280;68526;44.600;26.032;2023-09-19T00:03:10;100976.41;;;15.58;67.06
79123;BME280;68526;44.600;26.032;2023-09-19T00:03:27;100962.59;;;15.58;67.09
79123;BME280;68526;44.600;26.032;2023-09-19T00:03:44;100972.84;;;15.58;67.26
79123;BME280;68526;44.600;26.032;2023-09-19T00:03:59;100972.84;;;15.58;67.34
79123;BME280;68526;44.600;26.032;2023-09-19T00:04:16;100970.78;;;15.55;67.28
79123;BME280;68526;44.600;26.032;2023-09-19T00:04:34;100966.16;;;15.59;67.15
79123;BME280;68526;44.600;26.032;2023-09-19T00:04:50;100966.97;;;15.59;67.29
79123;BME280;68526;44.600;26.032;2023-09-19T00:05:07;100963.41;;;15.59;67.20
79123;BME280;68526;44.600;26.032;2023-09-19T00:05:24;100966.97;;;15.59;67.26
79123;BME280;68526;44.600;26.032;2023-09-19T00:05:40;100962.94;;;15.57;67.14
79123;BME280;68526;44.600;26.032;2023-09-19T00:06:00;100961.81;;;15.58;67.24
79123;BME280;68526;44.600;26.032;2023-09-19T00:06:16;100963.09;;;15.60;67.39
79123;BME280;68526;44.600;26.032;2023-09-19T00:06:32;100966.16;;;15.59;66.96
79123;BME280;68526;44.600;26.032;2023-09-19T00:06:48;100960.66;;;15.59;67.26
79123;BME280;68526;44.600;26.032;2023-09-19T00:07:04;100965.38;;;15.58;67.39
79123;BME280;68526;44.600;26.032;2023-09-19T00:07:20;100961.81;;;15.58;67.12
79123;BME280;68526;44.600;26.032;2023-09-19T00:07:37;100962.59;;;15.58;67.43
79123;BME280;68526;44.600;26.032;2023-09-19T00:07:54;100964.22;;;15.59;67.02
79123;BME280;68526;44.600;26.032;2023-09-19T00:08:11;100956.28;;;15.58;67.14
79123;BME280;68526;44.600;26.032;2023-09-19T00:08:28;100955.69;;;15.52;67.40
79123;BME280;68526;44.600;26.032;2023-09-19T00:08:44;100959.72;;;15.55;67.29
79123;BME280;68526;44.600;26.032;2023-09-19T00:09:00;100957.78;;;15.55;66.98
79123;BME280;68526;44.600;26.032;2023-09-19T00:09:16;100961.34;;;15.56;67.19
79123;BME280;68526;44.600;26.032;2023-09-19T00:09:32;100958.22;;;15.57;67.12
79123;BME280;68526;44.600;26.032;2023-09-19T00:09:52;100951.91;;;15.57;67.08
79123;BME280;68526;44.600;26.032;2023-09-19T00:10:12;100960.53;;;15.55;67.20
79123;BME280;68526;44.600;26.032;2023-09-19T00:10:32;100958.13;;;15.54;67.07
79123;BME280;68526;44.600;26.032;2023-09-19T00:10:50;100957.78;;;15.55;67.16
79123;BME280;68526;44.600;26.032;2023-09-19T00:11:06;100960.03;;;15.53;67.35
79123;BME280;68526;44.600;26.032;2023-09-19T00:11:23;100960.03;;;15.53;67.19
79123;BME280;68526;44.600;26.032;2023-09-19T00:11:41;100958.13;;;15.54;67.21
79123;BME280;68526;44.600;26.032;2023-09-19T00:11:57;100957.28;;;15.53;67.19
79123;BME280;68526;44.600;26.032;2023-09-19T00:12:13;100954.53;;;15.53;67.40
79123;BME280;68526;44.600;26.032;2023-09-19T00:12:30;100954.88;;;15.52;67.20
79123;BME280;68526;44.600;26.032;2023-09-19T00:12:45;100954.53;;;15.53;67.17
79123;BME280;68526;44.600;26.032;2023-09-19T00:13:02;100955.69;;;15.52;67.10
79123;BME280;68526;44.600;26.032;2023-09-19T00:13:20;100957.28;;;15.53;66.90
79123;BME280;68526;44.600;26.032;2023-09-19T00:13:36;100954.53;;;15.53;67.23
79123;BME280;68526;44.600;26.032;2023-09-19T00:13:53;100954.53;;;15.53;67.09
79123;BME280;68526;44.600;26.032;2023-09-19T00:14:09;100960.03;;;15.53;67.29
79123;BME280;68526;44.600;26.032;2023-09-19T00:14:25;100954.06;;;15.51;67.38
79123;BME280;68526;44.600;26.032;2023-09-19T00:14:41;100959.59;;;15.51;67.30
79123;BME280;68526;44.600;26.032;2023-09-19T00:14:57;100960.75;;;15.50;67.35
79123;BME280;68526;44.600;26.032;2023-09-19T00:15:13;100938.41;;;15.43;67.64
79123;BME280;68526;44.600;26.032;2023-09-19T00:15:37;100958.78;;;15.50;67.58
79123;BME280;68526;44.600;26.032;2023-09-19T00:15:54;100961.53;;;15.50;67.58
79123;BME280;68526;44.600;26.032;2023-09-19T00:16:11;100952.09;;;15.52;67.59
79123;BME280;68526;44.600;26.032;2023-09-19T00:16:27;100954.41;;;15.49;67.55
79123;BME280;68526;44.600;26.032;2023-09-19T00:16:43;100957.19;;;15.49;67.71
79123;BME280;68526;44.600;26.032;2023-09-19T00:16:59;100957.53;;;15.48;67.78
79123;BME280;68526;44.600;26.032;2023-09-19T00:17:16;100946.00;;;15.46;67.52
79123;BME280;68526;44.600;26.032;2023-09-19T00:17:31;100953.81;;;15.44;67.75
79123;BME280;68526;44.600;26.032;2023-09-19T00:17:47;100955.56;;;15.48;67.76
79123;BME280;68526;44.600;26.032;2023-09-19T00:18:04;100955.41;;;15.45;67.91
79123;BME280;68526;44.600;26.032;2023-09-19T00:18:21;100956.69;;;15.47;67.87
79123;BME280;68526;44.600;26.032;2023-09-19T00:18:39;100952.66;;;15.45;67.77
79123;BME280;68526;44.600;26.032;2023-09-19T00:18:55;100961.09;;;15.48;67.55
79123;BME280;68526;44.600;26.032;2023-09-19T00:19:11;100951.03;;;15.44;67.77
79123;BME280;68526;44.600;26.032;2023-09-19T00:19:27;100956.69;;;15.47;67.63
79123;BME280;68526;44.600;26.032;2023-09-19T00:19:43;100957.03;;;15.46;67.66
79123;BME280;68526;44.600;26.032;2023-09-19T00:19:59;100955.06;;;15.46;67.55
79123;BME280;68526;44.600;26.032;2023-09-19T00:20:22;100955.41;;;15.45;68.03
79123;BME280;68526;44.600;26.032;2023-09-19T00:20:39;100956.91;;;15.42;68.11
79123;BME280;68526;44.600;26.032;2023-09-19T00:20:57;100954.63;;;15.44;68.13
79123;BME280;68526;44.600;26.032;2023-09-19T00:21:13;100953.81;;;15.44;68.12
79123;BME280;68526;44.600;26.032;2023-09-19T00:21:31;100957.38;;;15.44;68.05
79123;BME280;68526;44.600;26.032;2023-09-19T00:21:48;100952.66;;;15.45;68.04
79123;BME280;68526;44.600;26.032;2023-09-19T00:22:04;100952.50;;;15.41;68.35
79123;BME280;68526;44.600;26.032;2023-09-19T00:22:20;100956.22;;;15.45;68.16
79123;BME280;68526;44.600;26.032;2023-09-19T00:22:39;100954.63;;;15.44;68.22
79123;BME280;68526;44.600;26.032;2023-09-19T00:22:55;100956.22;;;15.45;68.35
79123;BME280;68526;44.600;26.032;2023-09-19T00:23:11;100949.44;;;15.43;68.32
79123;BME280;68526;44.600;26.032;2023-09-19T00:23:27;100954.16;;;15.42;68.73
79123;BME280;68526;44.600;26.032;2023-09-19T00:23:43;100956.78;;;15.39;68.81
79123;BME280;68526;44.600;26.032;2023-09-19T00:24:00;100952.75;;;15.36;68.63
79123;BME280;68526;44.600;26.032;2023-09-19T00:24:16;100951.59;;;15.37;68.73
79123;BME280;68526;44.600;26.032;2023-09-19T00:24:33;100946.53;;;15.39;68.29
79123;BME280;68526;44.600;26.032;2023-09-19T00:24:49;100956.78;;;15.39;68.57
79123;BME280;68526;44.600;26.032;2023-09-19T00:25:06;100954.81;;;15.39;68.47
79123;BME280;68526;44.600;26.032;2023-09-19T00:25:24;100951.72;;;15.41;68.54
79123;BME280;68526;44.600;26.032;2023-09-19T00:25:41;100954.47;;;15.41;68.47
79123;BME280;68526;44.600;26.032;2023-09-19T00:25:58;100948.94;;;15.41;68.52
79123;BME280;68526;44.600;26.032;2023-09-19T00:26:14;100948.03;;;15.37;68.50
79123;BME280;68526;44.600;26.032;2023-09-19T00:26:31;100955.16;;;15.38;68.53
79123;BME280;68526;44.600;26.032;2023-09-19T00:26:47;100953.22;;;15.38;68.47
79123;BME280;68526;44.600;26.032;2023-09-19T00:27:03;100951.25;;;15.39;68.33
79123;BME280;68526;44.600;26.032;2023-09-19T00:27:21;100948.16;;;15.40;68.36
79123;BME280;68526;44.600;26.032;2023-09-19T00:27:38;100952.06;;;15.39;68.34
79123;BME280;68526;44.600;26.032;2023-09-19T00:27:57;100945.38;;;15.40;68.28
79123;BME280;68526;44.600;26.032;2023-09-19T00:28:13;100944.13;;;15.38;68.33
79123;BME280;68526;44.600;26.032;2023-09-19T00:28:32;100950.91;;;15.40;68.12
79123;BME280;68526;44.600;26.032;2023-09-19T00:28:47;100951.72;;;15.41;68.43
79123;BME280;68526;44.600;26.032;2023-09-19T00:29:03;100953.66;;;15.40;68.02
79123;BME280;68526;44.600;26.032;2023-09-19T00:29:19;100950.09;;;15.40;68.38
79123;BME280;68526;44.600;26.032;2023-09-19T00:29:36;100946.53;;;15.39;68.48
79123;BME280;68526;44.600;26.032;2023-09-19T00:29:52;100940.22;;;15.39;68.25
79123;BME280;68526;44.600;26.032;2023-09-19T00:30:09;100947.34;;;15.40;68.26
79123;BME280;68526;44.600;26.032;2023-09-19T00:30:29;100950.91;;;15.40;68.33
79123;BME280;68526;44.600;26.032;2023-09-19T00:30:45;100952.88;;;15.40;68.29
79123;BME280;68526;44.600;26.032;2023-09-19T00:31:07;100948.16;;;15.40;68.20
79123;BME280;68526;44.600;26.032;2023-09-19T00:31:24;100949.28;;;15.39;68.39
79123;BME280;68526;44.600;26.032;2023-09-19T00:31:43;100950.09;;;15.40;68.35
79123;BME280;68526;44.600;26.032;2023-09-19T00:31:58;100948.50;;;15.39;68.18
79123;BME280;68526;44.600;26.032;2023-09-19T00:32:14;100950.44;;;15.38;68.25
79123;BME280;68526;44.600;26.032;2023-09-19T00:32:30;100942.16;;;15.38;68.15
79123;BME280;68526;44.600;26.032;2023-09-19T00:32:47;100943.31;;;15.37;68.07
79123;BME280;68526;44.600;26.032;2023-09-19T00:33:04;100942.16;;;15.38;67.96
79123;BME280;68526;44.600;26.032;2023-09-19T00:33:23;100943.78;;;15.39;68.21
79123;BME280;68526;44.600;26.032;2023-09-19T00:33:39;100939.75;;;15.37;67.87
79123;BME280;68526;44.600;26.032;2023-09-19T00:33:55;100948.84;;;15.37;68.20
79123;BME280;68526;44.600;26.032;2023-09-19T00:34:14;100950.78;;;15.37;67.94
79123;BME280;68526;44.600;26.032;2023-09-19T00:34:31;100944.91;;;15.38;68.02
79123;BME280;68526;44.600;26.032;2023-09-19T00:34:49;100944.13;;;15.38;67.88
79123;BME280;68526;44.600;26.032;2023-09-19T00:35:06;100941.34;;;15.38;67.66
79123;BME280;68526;44.600;26.032;2023-09-19T00:35:23;100940.75;;;15.32;68.11
79123;BME280;68526;44.600;26.032;2023-09-19T00:35:47;100941.72;;;15.36;67.98
79123;BME280;68526;44.600;26.032;2023-09-19T00:36:03;100940.06;;;15.35;67.81
79123;BME280;68526;44.600;26.032;2023-09-19T00:36:21;100948.03;;;15.37;67.94
79123;BME280;68526;44.600;26.032;2023-09-19T00:36:36;100938.13;;;15.36;68.12
79123;BME280;68526;44.600;26.032;2023-09-19T00:36:54;100945.59;;;15.35;67.86
79123;BME280;68526;44.600;26.032;2023-09-19T00:37:09;100939.25;;;15.35;67.97
79123;BME280;68526;44.600;26.032;2023-09-19T00:37:26;100938.44;;;15.34;67.86
79123;BME280;68526;44.600;26.032;2023-09-19T00:37:42;100934.44;;;15.32;67.93
79123;BME280;68526;44.600;26.032;2023-09-19T00:37:59;100940.41;;;15.34;67.68
79123;BME280;68526;44.600;26.032;2023-09-19T00:38:15;100942.72;;;15.32;67.68
79123;BME280;68526;44.600;26.032;2023-09-19T00:38:32;100937.19;;;15.32;67.88
79123;BME280;68526;44.600;26.032;2023-09-19T00:38:48;100939.59;;;15.33;67.79
79123;BME280;68526;44.600;26.032;2023-09-19T00:39:04;100940.41;;;15.34;67.82
79123;BME280;68526;44.600;26.032;2023-09-19T00:39:20;100942.38;;;15.33;67.75
79123;BME280;68526;44.600;26.032;2023-09-19T00:39:37;100941.22;;;15.34;67.83
79123;BME280;68526;44.600;26.032;2023-09-19T00:39:53;100935.22;;;15.32;67.86
79123;BME280;68526;44.600;26.032;2023-09-19T00:40:10;100936.84;;;15.33;67.77
79123;BME280;68526;44.600;26.032;2023-09-19T00:40:29;100938.81;;;15.33;68.09
79123;BME280;68526;44.600;26.032;2023-09-19T00:40:45;100941.56;;;15.33;68.11
79123;BME280;68526;44.600;26.032;2023-09-19T00:41:01;100936.84;;;15.33;67.93
79123;BME280;68526;44.600;26.032;2023-09-19T00:41:17;100938.81;;;15.33;67.90
79123;BME280;68526;44.600;26.032;2023-09-19T00:41:33;100938.00;;;15.32;67.93
79123;BME280;68526;44.600;26.032;2023-09-19T00:41:51;100938.00;;;15.32;67.89
79123;BME280;68526;44.600;26.032;2023-09-19T00:42:07;100938.34;;;15.31;67.98
79123;BME280;68526;44.600;26.032;2023-09-19T00:42:23;100940.75;;;15.32;67.93
79123;BME280;68526;44.600;26.032;2023-09-19T00:42:41;100939.94;;;15.32;68.17
79123;BME280;68526;44.600;26.032;2023-09-19T00:42:58;100936.38;;;15.31;68.01
79123;BME280;68526;44.600;26.032;2023-09-19T00:43:15;100941.91;;;15.31;68.00
79123;BME280;68526;44.600;26.032;2023-09-19T00:43:32;100938.66;;;15.29;68.08
79123;BME280;68526;44.600;26.032;2023-09-19T00:43:49;100943.72;;;15.27;68.44
79123;BME280;68526;44.600;26.032;2023-09-19T00:44:06;100923.19;;;15.16;68.40
79123;BME280;68526;44.600;26.032;2023-09-19T00:44:24;100939.69;;;15.25;68.41
79123;BME280;68526;44.600;26.032;2023-09-19T00:44:40;100930.59;;;15.24;68.53
79123;BME280;68526;44.600;26.032;2023-09-19T00:44:56;100937.38;;;15.27;68.30
79123;BME280;68526;44.600;26.032;2023-09-19T00:45:13;100937.03;;;15.28;68.42
79123;BME280;68526;44.600;26.032;2023-09-19T00:45:29;100937.03;;;15.28;68.44
79123;BME280;68526;44.600;26.032;2023-09-19T00:45:50;100936.25;;;15.28;68.31
79123;BME280;68526;44.600;26.032;2023-09-19T00:46:06;100929.09;;;15.27;68.50
79123;BME280;68526;44.600;26.032;2023-09-19T00:46:23;100933.81;;;15.26;68.36
79123;BME280;68526;44.600;26.032;2023-09-19T00:46:39;100921.03;;;15.21;68.32
79123;BME280;68526;44.600;26.032;2023-09-19T00:46:55;100931.41;;;15.25;68.37
79123;BME280;68526;44.600;26.032;2023-09-19T00:47:11;100930.81;;;15.19;68.67
79123;BME280;68526;44.600;26.032;2023-09-19T00:47:31;100935.03;;;15.16;68.75
79123;BME280;68526;44.600;26.032;2023-09-19T00:47:49;100932.59;;;15.15;68.97
79123;BME280;68526;44.600;26.032;2023-09-19T00:48:06;100932.97;;;15.13;69.03
79123;BME280;68526;44.600;26.032;2023-09-19T00:48:25;100929.50;;;15.16;68.75
79123;BME280;68526;44.600;26.032;2023-09-19T00:48:44;100933.41;;;15.15;69.27
79123;BME280;68526;44.600;26.032;2023-09-19T00:49:00;100928.69;;;15.16;69.04
79123;BME280;68526;44.600;26.032;2023-09-19T00:49:16;100920.31;;;15.12;68.91
79123;BME280;68526;44.600;26.032;2023-09-19T00:49:32;100918.00;;;15.14;69.02
79123;BME280;68526;44.600;26.032;2023-09-19T00:49:48;100925.94;;;15.16;69.08
79123;BME280;68526;44.600;26.032;2023-09-19T00:50:08;100922.03;;;15.17;69.23
79123;BME280;68526;44.600;26.032;2023-09-19T00:50:27;100924.34;;;15.15;69.49
79123;BME280;68526;44.600;26.032;2023-09-19T00:50:43;100920.44;;;15.16;69.23
79123;BME280;68526;44.600;26.032;2023-09-19T00:51:02;100918.34;;;15.13;69.08
79123;BME280;68526;44.600;26.032;2023-09-19T00:51:20;100927.09;;;15.15;69.27
79123;BME280;68526;44.600;26.032;2023-09-19T00:51:37;100927.44;;;15.13;69.13
79123;BME280;68526;44.600;26.032;2023-09-19T00:51:52;100925.13;;;15.15;69.08
79123;BME280;68526;44.600;26.032;2023-09-19T00:52:11;100920.44;;;15.16;68.97
79123;BME280;68526;44.600;26.032;2023-09-19T00:52:27;100918.47;;;15.16;69.11
79123;BME280;68526;44.600;26.032;2023-09-19T00:52:44;100924.78;;;15.17;68.82
79123;BME280;68526;44.600;26.032;2023-09-19T00:53:02;100924.00;;;15.16;68.81
79123;BME280;68526;44.600;26.032;2023-09-19T00:53:22;100924.00;;;15.16;69.06
79123;BME280;68526;44.600;26.032;2023-09-19T00:53:40;100926.28;;;15.14;69.05
79123;BME280;68526;44.600;26.032;2023-09-19T00:54:02;100924.78;;;15.17;69.00
79123;BME280;68526;44.600;26.032;2023-09-19T00:54:19;100922.38;;;15.15;69.23
79123;BME280;68526;44.600;26.032;2023-09-19T00:54:35;100920.44;;;15.16;69.34
79123;BME280;68526;44.600;26.032;2023-09-19T00:54:51;100921.22;;;15.16;68.98
79123;BME280;68526;44.600;26.032;2023-09-19T00:55:09;100927.56;;;15.17;69.17
79123;BME280;68526;44.600;26.032;2023-09-19T00:55:25;100933.06;;;15.17;68.90
79123;BME280;68526;44.600;26.032;2023-09-19T00:55:43;100924.00;;;15.16;68.97
79123;BME280;68526;44.600;26.032;2023-09-19T00:55:59;100922.03;;;15.17;69.13
79123;BME280;68526;44.600;26.032;2023-09-19T00:56:16;100935.84;;;15.17;69.35
79123;BME280;68526;44.600;26.032;2023-09-19T00:56:34;100924.34;;;15.15;69.21
79123;BME280;68526;44.600;26.032;2023-09-19T00:56:49;100924.34;;;15.15;69.23
79123;BME280;68526;44.600;26.032;2023-09-19T00:57:06;100922.72;;;15.14;69.34
79123;BME280;68526;44.600;26.032;2023-09-19T00:57:23;100919.97;;;15.14;69.38
79123;BME280;68526;44.600;26.032;2023-09-19T00:57:39;100934.22;;;15.16;69.05
79123;BME280;68526;44.600;26.032;2023-09-19T00:57:55;100912.34;;;15.11;69.46
79123;BME280;68526;44.600;26.032;2023-09-19T00:58:12;100916.25;;;15.10;69.64
79123;BME280;68526;44.600;26.032;2023-09-19T00:58:28;100924.53;;;15.10;69.59
79123;BME280;68526;44.600;26.032;2023-09-19T00:58:49;100922.56;;;15.10;69.26
79123;BME280;68526;44.600;26.032;2023-09-19T00:59:05;100922.22;;;15.12;69.59
79123;BME280;68526;44.600;26.032;2023-09-19T00:59:21;100921.78;;;15.10;69.41
79123;BME280;68526;44.600;26.032;2023-09-19T00:59:38;100919.47;;;15.12;69.33
79123;BME280;68526;44.600;26.032;2023-09-19T00:59:54;100922.22;;;15.12;69.19
79123;BME280;68526;44.600;26.032;2023-09-19T01:00:12;100915.91;;;15.11;69.30
79123;BME280;68526;44.600;26.032;2023-09-19T01:00:31;100917.06;;;15.10;69.43
79123;BME280;68526;44.600;26.032;2023-09-19T01:00:49;100924.19;;;15.11;69.49
79123;BME280;68526;44.600;26.032;2023-09-19T01:01:06;100914.66;;;15.09;69.36
79123;BME280;68526;44.600;26.032;2023-09-19T01:01:22;100909.94;;;15.09;69.28
79123;BME280;68526;44.600;26.032;2023-09-19T01:01:40;100915.09;;;15.11;69.44
79123;BME280;68526;44.600;26.032;2023-09-19T01:01:56;100926.13;;;15.11;69.31
79123;BME280;68526;44.600;26.032;2023-09-19T01:02:12;100917.88;;;15.11;69.51
79123;BME280;68526;44.600;26.032;2023-09-19T01:02:29;100917.88;;;15.11;69.31
79123;BME280;68526;44.600;26.032;2023-09-19T01:02:46;100914.31;;;15.10;69.48
79123;BME280;68526;44.600;26.032;2023-09-19T01:03:03;100917.56;;;15.12;69.33
79123;BME280;68526;44.600;26.032;2023-09-19T01:03:19;100918.66;;;15.11;69.35
79123;BME280;68526;44.600;26.032;2023-09-19T01:03:37;100918.22;;;15.09;69.43
79123;BME280;68526;44.600;26.032;2023-09-19T01:03:53;100914.66;;;15.09;69.41
79123;BME280;68526;44.600;26.032;2023-09-19T01:04:09;100916.25;;;15.10;69.46
79123;BME280;68526;44.600;26.032;2023-09-19T01:04:25;100918.22;;;15.09;69.28
79123;BME280;68526;44.600;26.032;2023-09-19T01:04:41;100916.25;;;15.10;69.25
79123;BME280;68526;44.600;26.032;2023-09-19T01:04:57;100912.22;;;15.07;69.06
79123;BME280;68526;44.600;26.032;2023-09-19T01:05:13;100913.84;;;15.08;69.26
79123;BME280;68526;44.600;26.032;2023-09-19T01:05:31;100915.44;;;15.09;69.37
79123;BME280;68526;44.600;26.032;2023-09-19T01:05:46;100916.25;;;15.10;69.50
79123;BME280;68526;44.600;26.032;2023-09-19T01:06:03;100913.03;;;15.08;69.20
79123;BME280;68526;44.600;26.032;2023-09-19T01:06:19;100922.13;;;15.08;69.37
79123;BME280;68526;44.600;26.032;2023-09-19T01:06:35;100907.50;;;15.08;69.30
79123;BME280;68526;44.600;26.032;2023-09-19T01:06:52;100914.19;;;15.07;69.28
79123;BME280;68526;44.600;26.032;2023-09-19T01:07:09;100918.56;;;15.08;69.01
79123;BME280;68526;44.600;26.032;2023-09-19T01:07:25;100916.44;;;15.05;69.21
79123;BME280;68526;44.600;26.032;2023-09-19T01:07:41;100911.41;;;15.07;69.23
79123;BME280;68526;44.600;26.032;2023-09-19T01:07:57;100925.22;;;15.07;69.19
79123;BME280;68526;44.600;26.032;2023-09-19T01:08:14;100911.41;;;15.07;69.15
79123;BME280;68526;44.600;26.032;2023-09-19T01:08:30;100913.38;;;15.06;69.24
79123;BME280;68526;44.600;26.032;2023-09-19T01:08:46;100916.94;;;15.07;69.41
79123;BME280;68526;44.600;26.032;2023-09-19T01:09:03;100912.53;;;15.06;69.20
79123;BME280;68526;44.600;26.032;2023-09-19T01:09:19;100918.41;;;15.04;69.26
79123;BME280;68526;44.600;26.032;2023-09-19T01:09:36;100921.97;;;15.05;69.30
79123;BME280;68526;44.600;26.032;2023-09-19T01:09:52;100915.66;;;15.04;69.45
79123;BME280;68526;44.600;26.032;2023-09-19T01:10:13;100900.94;;;15.00;69.35
79123;BME280;68526;44.600;26.032;2023-09-19T01:10:30;100911.28;;;15.03;69.33
79123;BME280;68526;44.600;26.032;2023-09-19T01:10:52;100918.41;;;15.04;69.30
79123;BME280;68526;44.600;26.032;2023-09-19T01:11:18;100907.38;;;15.04;69.20
79123;BME280;68526;44.600;26.032;2023-09-19T01:11:38;100910.81;;;15.01;69.17
79123;BME280;68526;44.600;26.032;2023-09-19T01:12:00;100898.97;;;15.01;69.43
79123;BME280;68526;44.600;26.032;2023-09-19T01:12:22;100900.59;;;15.02;69.45
79123;BME280;68526;44.600;26.032;2023-09-19T01:12:49;100907.25;;;15.01;69.47
79123;BME280;68526;44.600;26.032;2023-09-19T01:13:15;100903.34;;;15.02;69.21
79123;BME280;68526;44.600;26.032;2023-09-19T01:13:47;100905.28;;;15.01;69.06
79123;BME280;68526;44.600;26.032;2023-09-19T01:14:14;100897.03;;;15.01;69.11
79123;BME280;68526;44.600;26.032;2023-09-19T01:14:39;100909.19;;;15.00;69.16
79123;BME280;68526;44.600;26.032;2023-09-19T01:15:03;100895.91;;;14.93;69.24
79123;BME280;68526;44.600;26.032;2023-09-19T01:15:29;100910.19;;;14.95;69.42
79123;BME280;68526;44.600;26.032;2023-09-19T01:15:58;100899.16;;;14.95;69.20
79123;BME280;68526;44.600;26.032;2023-09-19T01:16:22;100903.88;;;14.95;69.16
79123;BME280;68526;44.600;26.032;2023-09-19T01:16:50;100903.72;;;14.91;69.62
79123;BME280;68526;44.600;26.032;2023-09-19T01:17:15;100902.47;;;14.89;69.38
79123;BME280;68526;44.600;26.032;2023-09-19T01:17:36;100909.94;;;14.88;69.75
79123;BME280;68526;44.600;26.032;2023-09-19T01:18:00;100911.84;;;14.88;69.72
79123;BME280;68526;44.600;26.032;2023-09-19T01:18:24;100906.84;;;14.90;69.50
79123;BME280;68526;44.600;26.032;2023-09-19T01:18:47;100908.78;;;14.89;69.77
79123;BME280;68526;44.600;26.032;2023-09-19T01:19:22;100901.66;;;14.88;69.79
79123;BME280;68526;44.600;26.032;2023-09-19T01:20:06;100896.94;;;14.89;69.51
79123;BME280;68526;44.600;26.032;2023-09-19T01:20:31;100900.03;;;14.87;69.58
79123;BME280;68526;44.600;26.032;2023-09-19T01:20:57;100910.75;;;14.89;69.56
79123;BME280;68526;44.600;26.032;2023-09-19T01:21:21;100907.03;;;14.85;69.67
79123;BME280;68526;44.600;26.032;2023-09-19T01:21:46;100895.22;;;14.76;69.72
79123;BME280;68526;44.600;26.032;2023-09-19T01:22:15;100900.72;;;14.84;69.92
79123;BME280;68526;44.600;26.032;2023-09-19T01:22:39;100906.69;;;14.86;69.66
79123;BME280;68526;44.600;26.032;2023-09-19T01:23:10;100904.72;;;14.87;69.56
79123;BME280;68526;44.600;26.032;2023-09-19T01:23:38;100905.53;;;14.87;69.66
79123;BME280;68526;44.600;26.032;2023-09-19T01:26:05;100914.97;;;14.86;70.18
79123;BME280;68526;44.600;26.032;2023-09-19T01:26:33;100914.16;;;14.86;70.09
79123;BME280;68526;44.600;26.032;2023-09-19T01:27:17;100911.75;;;14.84;70.19
79123;BME280;68526;44.600;26.032;2023-09-19T01:27:57;100906.56;;;14.83;70.23
79123;BME280;68526;44.600;26.032;2023-09-19T01:28:30;100905.28;;;14.80;70.12
79123;BME280;68526;44.600;26.032;2023-09-19T01:28:53;100915.97;;;14.82;69.96
79123;BME280;68526;44.600;26.032;2023-09-19T01:29:20;100914.00;;;14.82;70.42
79123;BME280;68526;44.600;26.032;2023-09-19T01:29:46;100910.78;;;14.80;70.38
79123;BME280;68526;44.600;26.032;2023-09-19T01:30:10;100916.75;;;14.82;70.21
79123;BME280;68526;44.600;26.032;2023-09-19T01:30:27;100913.69;;;14.84;70.25
79123;BME280;68526;44.600;26.032;2023-09-19T01:30:52;100906.56;;;14.83;70.20
79123;BME280;68526;44.600;26.032;2023-09-19T01:31:13;100910.44;;;14.82;70.26
79123;BME280;68526;44.600;26.032;2023-09-19T01:31:32;100911.59;;;14.81;70.16
79123;BME280;68526;44.600;26.032;2023-09-19T01:31:51;100908.38;;;14.79;70.11
79123;BME280;68526;44.600;26.032;2023-09-19T01:32:11;100903.66;;;14.79;70.52
79123;BME280;68526;44.600;26.032;2023-09-19T01:32:30;100908.84;;;14.81;70.38
79123;BME280;68526;44.600;26.032;2023-09-19T01:32:49;100911.59;;;14.81;70.27
79123;BME280;68526;44.600;26.032;2023-09-19T01:33:08;100910.78;;;14.80;70.33
79123;BME280;68526;44.600;26.032;2023-09-19T01:33:26;100912.41;;;14.81;70.32
79123;BME280;68526;44.600;26.032;2023-09-19T01:33:56;100906.88;;;14.81;70.51
79123;BME280;68526;44.600;26.032;2023-09-19T01:34:12;100907.69;;;14.82;70.65
79123;BME280;68526;44.600;26.032;2023-09-19T01:34:43;100908.84;;;14.81;70.84
79123;BME280;68526;44.600;26.032;2023-09-19T01:35:01;100911.25;;;14.82;70.74
79123;BME280;68526;44.600;26.032;2023-09-19T01:35:19;100905.72;;;14.82;70.71
79123;BME280;68526;44.600;26.032;2023-09-19T01:35:35;100909.63;;;14.81;70.84
79123;BME280;68526;44.600;26.032;2023-09-19T01:35:54;100909.63;;;14.81;71.04
79123;BME280;68526;44.600;26.032;2023-09-19T01:36:13;100904.13;;;14.81;70.98
79123;BME280;68526;44.600;26.032;2023-09-19T01:36:31;100910.44;;;14.82;71.25
79123;BME280;68526;44.600;26.032;2023-09-19T01:36:49;100914.00;;;14.82;71.33
79123;BME280;68526;44.600;26.032;2023-09-19T01:37:05;100911.59;;;14.81;71.27